createdAt,value
2022-09-28T00:00:53.085Z,100.00
2022-09-28T00:03:33.168Z,100.00
2022-09-28T00:06:24.046Z,100.00
2022-09-28T00:09:05.173Z,100.00
2022-09-28T00:11:53.061Z,100.00
2022-09-28T00:14:33.203Z,100.00
2022-09-28T00:17:21.089Z,100.00
2022-09-28T00:20:05.298Z,100.00
2022-09-28T00:22:52.065Z,100.00
2022-09-28T00:25:39.025Z,100.00
2022-09-28T00:28:26.152Z,100.00
2022-09-28T00:31:07.065Z,100.00
2022-09-28T00:33:51.929Z,100.00
2022-09-28T00:36:40.056Z,100.00
2022-09-28T00:39:27.036Z,100.00
2022-09-28T00:42:07.166Z,100.00
2022-09-28T00:44:58.017Z,100.00
2022-09-28T00:47:56.006Z,100.00
2022-09-28T00:50:38.679Z,100.00
2022-09-28T00:53:32.045Z,100.00
2022-09-28T00:56:19.054Z,100.00
2022-09-28T00:59:06.992Z,100.00
2022-09-28T01:01:53.989Z,100.00
2022-09-28T01:04:42.027Z,100.00
2022-09-28T01:07:22.900Z,100.00
2022-09-28T01:10:10.018Z,100.00
2022-09-28T01:12:56.966Z,100.00
2022-09-28T01:15:49.985Z,100.00
2022-09-28T01:19:08.083Z,100.00
2022-09-28T01:22:43.005Z,100.00
2022-09-28T01:25:35.963Z,100.00
2022-09-28T01:28:32.988Z,100.00
2022-09-28T01:31:22.987Z,100.00
2022-09-28T01:34:31.042Z,100.00
2022-09-28T01:37:21.954Z,100.00
2022-09-28T01:40:05.103Z,100.00
2022-09-28T01:42:54.972Z,100.00
2022-09-28T01:45:47.979Z,100.00
2022-09-28T01:48:46.958Z,100.00
2022-09-28T01:51:57.937Z,100.00
2022-09-28T01:55:09.479Z,100.00
2022-09-28T01:58:01.912Z,100.00
2022-09-28T02:00:47.079Z,100.00
2022-09-28T02:03:42.941Z,100.00
2022-09-28T02:06:31.994Z,100.00
2022-09-28T02:09:29.465Z,100.00
2022-09-28T02:12:31.904Z,100.00
2022-09-28T02:15:23.989Z,100.00
2022-09-28T02:18:12.951Z,100.00
2022-09-28T02:21:05.983Z,100.00
2022-09-28T02:24:07.916Z,100.00
2022-09-28T02:27:03.919Z,100.00
2022-09-28T02:29:50.921Z,100.00
2022-09-28T02:32:32.988Z,100.00
2022-09-28T02:35:22.926Z,100.00
2022-09-28T02:38:04.053Z,100.00
2022-09-28T02:41:02.944Z,100.00
2022-09-28T02:44:16.950Z,100.00
2022-09-28T02:47:20.862Z,100.00
2022-09-28T02:50:08.884Z,100.00
2022-09-28T02:53:04.859Z,100.00
2022-09-28T02:56:03.875Z,100.00
2022-09-28T02:58:48.026Z,100.00
2022-09-28T03:02:02.947Z,100.00
2022-09-28T03:04:57.857Z,100.00
2022-09-28T03:26:01.795Z,100.00
2022-09-28T03:28:42.295Z,100.00
2022-09-28T03:31:34.834Z,100.00
2022-09-28T03:34:21.799Z,100.00
2022-09-28T03:37:08.841Z,100.00
2022-09-28T03:39:55.804Z,100.00
2022-09-28T03:42:37.811Z,100.00
2022-09-28T03:45:24.871Z,100.00
2022-09-28T03:48:04.982Z,100.00
2022-09-28T03:50:51.785Z,100.00
2022-09-28T03:53:39.810Z,100.00
2022-09-28T03:56:20.224Z,100.00
2022-09-28T03:59:06.812Z,100.00
2022-09-28T04:01:56.796Z,100.00
2022-09-28T04:04:37.883Z,100.00
2022-09-28T04:07:28.975Z,100.00
2022-09-28T04:10:10.999Z,100.00
2022-09-28T04:13:01.766Z,100.00
2022-09-28T04:15:41.960Z,100.00
2022-09-28T04:18:29.772Z,100.00
2022-09-28T04:21:28.856Z,100.00
2022-09-28T04:24:24.751Z,100.00
2022-09-28T04:27:23.820Z,100.00
2022-09-28T04:30:10.750Z,100.00
2022-09-28T04:32:54.846Z,100.00
2022-09-28T04:35:43.775Z,100.00
2022-09-28T04:38:48.369Z,95.76
2022-09-28T04:41:30.745Z,89.41
2022-09-28T04:44:17.688Z,86.62
2022-09-28T04:47:10.713Z,84.51
2022-09-28T04:50:25.717Z,83.45
2022-09-28T04:53:34.727Z,85.16
2022-09-28T04:56:18.833Z,85.83
2022-09-28T04:59:05.716Z,85.16
2022-09-28T05:01:47.600Z,85.61
2022-09-28T05:04:34.696Z,83.83
2022-09-28T05:07:49.737Z,79.29
2022-09-28T05:10:30.052Z,77.97
2022-09-28T05:13:16.735Z,76.80
2022-09-28T05:16:05.854Z,76.83
2022-09-28T05:19:03.708Z,77.28
2022-09-28T05:21:48.827Z,75.88
2022-09-28T05:24:35.692Z,76.08
2022-09-28T05:27:22.685Z,78.52
2022-09-28T05:30:12.701Z,77.53
2022-09-28T05:33:28.677Z,75.46
2022-09-28T05:36:20.105Z,76.39
2022-09-28T05:39:06.689Z,75.78
2022-09-28T05:41:47.043Z,76.04
2022-09-28T05:44:34.858Z,71.89
2022-09-28T05:47:15.040Z,64.93
2022-09-28T05:50:01.679Z,64.07
2022-09-28T05:52:43.345Z,58.47
2022-09-28T05:55:29.651Z,54.27
2022-09-28T05:58:10.081Z,51.44
2022-09-28T06:00:57.700Z,54.28
2022-09-28T06:03:38.057Z,59.25
2022-09-28T06:06:24.683Z,60.56
2022-09-28T06:09:05.056Z,61.25
2022-09-28T06:12:12.840Z,60.30
2022-09-28T06:15:07.638Z,51.10
2022-09-28T06:17:54.632Z,45.47
2022-09-28T06:21:07.663Z,44.79
2022-09-28T06:23:50.733Z,42.04
2022-09-28T06:26:37.640Z,43.63
2022-09-28T06:29:19.762Z,40.65
2022-09-28T06:32:06.658Z,39.46
2022-09-28T06:34:50.732Z,39.16
2022-09-28T06:37:40.637Z,39.06
2022-09-28T06:40:20.888Z,38.79
2022-09-28T06:43:21.600Z,37.26
2022-09-28T06:46:21.344Z,39.61
2022-09-28T06:49:26.657Z,39.82
2022-09-28T06:52:31.610Z,34.88
2022-09-28T06:55:19.459Z,33.39
2022-09-28T06:58:14.611Z,31.24
2022-09-28T07:01:00.488Z,34.18
2022-09-28T07:03:55.945Z,31.71
2022-09-28T07:06:54.394Z,30.55
2022-09-28T07:10:07.595Z,28.60
2022-09-28T07:13:11.969Z,28.50
2022-09-28T07:16:08.636Z,27.38
2022-09-28T07:18:55.580Z,27.81
2022-09-28T07:21:36.776Z,26.92
2022-09-28T07:24:23.809Z,28.95
2022-09-28T07:27:28.767Z,29.18
2022-09-28T07:30:27.942Z,27.50
2022-09-28T07:33:30.343Z,29.85
2022-09-28T07:36:29.781Z,30.45
2022-09-28T07:39:09.662Z,28.09
2022-09-28T07:41:59.701Z,26.60
2022-09-28T07:44:50.562Z,25.61
2022-09-28T07:47:38.507Z,26.68
2022-09-28T07:50:26.673Z,26.46
2022-09-28T07:53:29.540Z,26.36
2022-09-28T07:56:38.681Z,28.56
2022-09-28T07:59:50.537Z,24.84
2022-09-28T08:02:48.666Z,22.92
2022-09-28T08:05:42.536Z,24.71
2022-09-28T08:08:29.541Z,23.26
2022-09-28T08:11:13.532Z,21.74
2022-09-28T08:14:18.654Z,22.20
2022-09-28T08:17:07.261Z,25.31
2022-09-28T08:20:21.795Z,25.35
2022-09-28T08:23:13.537Z,25.01
2022-09-28T08:26:00.620Z,23.61
2022-09-28T08:28:42.536Z,22.51
2022-09-28T08:32:01.364Z,22.40
2022-09-28T08:34:53.551Z,21.42
2022-09-28T08:37:58.127Z,21.08
2022-09-28T08:41:26.508Z,21.45
2022-09-28T08:44:30.580Z,21.80
2022-09-28T08:48:15.972Z,22.07
2022-09-28T08:51:29.501Z,19.37
2022-09-28T08:54:58.592Z,19.88
2022-09-28T08:57:54.522Z,20.60
2022-09-28T09:00:44.608Z,20.03
2022-09-28T09:03:46.464Z,20.58
2022-09-28T09:07:13.576Z,21.09
2022-09-28T09:10:22.476Z,19.99
2022-09-28T09:13:06.554Z,18.38
2022-09-28T09:16:30.566Z,19.15
2022-09-28T09:19:49.601Z,16.33
2022-09-28T09:23:12.457Z,16.31
2022-09-28T09:26:13.643Z,17.86
2022-09-28T09:29:22.315Z,18.39
2022-09-28T09:32:33.444Z,15.85
2022-09-28T09:35:26.889Z,16.02
2022-09-28T09:38:48.476Z,16.83
2022-09-28T09:42:43.461Z,17.31
2022-09-28T09:46:06.888Z,16.29
2022-09-28T09:49:41.479Z,12.91
2022-09-28T09:52:36.995Z,14.17
2022-09-28T09:55:34.540Z,13.82
2022-09-28T09:58:54.452Z,13.88
2022-09-28T10:01:48.508Z,13.97
2022-09-28T10:04:47.577Z,14.59
2022-09-28T10:07:54.452Z,14.77
2022-09-28T10:10:42.570Z,14.87
2022-09-28T10:13:31.447Z,14.53
2022-09-28T10:16:32.488Z,12.70
2022-09-28T10:19:28.456Z,14.13
2022-09-28T10:22:40.420Z,14.35
2022-09-28T10:25:38.420Z,12.64
2022-09-28T10:28:36.483Z,13.71
2022-09-28T10:31:49.449Z,15.13
2022-09-28T10:34:38.430Z,14.51
2022-09-28T10:37:24.563Z,13.67
2022-09-28T10:40:50.558Z,13.88
2022-09-28T10:44:12.431Z,12.77
2022-09-28T10:47:16.416Z,13.42
2022-09-28T10:49:58.574Z,13.84
2022-09-28T10:52:52.446Z,13.91
2022-09-28T10:56:05.477Z,12.57
2022-09-28T10:58:52.372Z,13.11
2022-09-28T11:01:54.391Z,14.23
2022-09-28T11:04:47.397Z,14.98
2022-09-28T11:07:33.371Z,14.13
2022-09-28T11:10:28.395Z,14.24
2022-09-28T11:13:18.486Z,12.60
2022-09-28T11:16:15.411Z,15.63
2022-09-28T11:18:55.502Z,14.20
2022-09-28T11:21:50.374Z,12.76
2022-09-28T11:24:39.463Z,12.13
2022-09-28T11:27:34.368Z,12.94
2022-09-28T11:30:29.536Z,14.22
2022-09-28T11:33:55.342Z,14.56
2022-09-28T11:37:38.353Z,15.52
2022-09-28T11:41:10.338Z,18.17
2022-09-28T11:44:33.366Z,17.81
2022-09-28T11:48:02.345Z,15.57
2022-09-28T11:50:53.434Z,15.91
2022-09-28T11:53:50.345Z,17.41
2022-09-28T11:56:52.354Z,19.82
2022-09-28T11:59:35.664Z,22.21
2022-09-28T12:02:26.386Z,24.28
2022-09-28T12:05:32.426Z,24.83
2022-09-28T12:08:25.326Z,26.04
2022-09-28T12:11:41.358Z,26.97
2022-09-28T12:14:36.575Z,26.80
2022-09-28T12:17:35.478Z,26.80
2022-09-28T12:20:31.339Z,33.88
2022-09-28T12:23:25.892Z,35.54
2022-09-28T12:26:27.289Z,31.32
2022-09-28T12:29:11.487Z,38.67
2022-09-28T12:32:05.302Z,40.62
2022-09-28T12:34:48.372Z,42.46
2022-09-28T12:38:00.323Z,45.61
2022-09-28T12:41:26.268Z,48.12
2022-09-28T12:44:36.312Z,51.65
2022-09-28T12:47:43.274Z,53.74
2022-09-28T12:50:39.066Z,54.90
2022-09-28T12:53:37.261Z,56.03
2022-09-28T12:56:50.290Z,57.15
2022-09-28T12:59:46.827Z,57.06
2022-09-28T13:02:45.301Z,57.80
2022-09-28T13:06:25.266Z,58.13
2022-09-28T13:09:17.232Z,58.06
2022-09-28T13:12:23.245Z,59.02
2022-09-28T13:15:41.344Z,58.61
2022-09-28T13:18:51.270Z,59.73
2022-09-28T13:22:01.270Z,60.89
2022-09-28T13:24:53.249Z,61.57
2022-09-28T13:27:47.277Z,63.26
2022-09-28T13:30:27.708Z,64.86
2022-09-28T13:33:17.209Z,68.27
2022-09-28T13:35:57.358Z,70.01
2022-09-28T13:38:54.193Z,71.44
2022-09-28T13:41:55.983Z,72.57
2022-09-28T13:45:13.207Z,73.95
2022-09-28T13:48:18.650Z,76.94
2022-09-28T13:51:29.214Z,77.89
2022-09-28T13:54:23.379Z,78.43
2022-09-28T13:57:53.196Z,78.89
2022-09-28T14:00:38.364Z,79.25
2022-09-28T14:03:49.183Z,79.58
2022-09-28T14:06:49.439Z,81.10
2022-09-28T14:09:56.189Z,82.05
2022-09-28T14:12:51.600Z,82.18
2022-09-28T14:15:44.227Z,78.92
2022-09-28T14:18:38.294Z,79.96
2022-09-28T14:22:02.183Z,78.84
2022-09-28T14:24:54.182Z,81.19
2022-09-28T14:27:37.794Z,79.74
2022-09-28T14:30:27.174Z,79.11
2022-09-28T14:33:19.379Z,78.65
2022-09-28T14:36:20.138Z,77.09
2022-09-28T14:39:19.432Z,75.64
2022-09-28T14:42:06.171Z,75.44
2022-09-28T14:45:05.394Z,75.51
2022-09-28T14:47:55.152Z,75.75
2022-09-28T14:50:42.114Z,74.56
2022-09-28T14:53:31.245Z,73.29
2022-09-28T14:56:21.114Z,72.77
2022-09-28T14:59:04.250Z,73.91
2022-09-28T15:02:15.159Z,74.81
2022-09-28T15:05:16.267Z,73.65
2022-09-28T15:08:04.140Z,74.31
2022-09-28T15:10:47.254Z,74.91
2022-09-28T15:27:56.740Z,79.68
2022-09-28T15:30:37.468Z,79.56
2022-09-28T15:34:12.751Z,79.56
2022-09-28T15:37:02.726Z,78.13
2022-09-28T15:39:42.828Z,77.93
2022-09-28T15:42:29.751Z,78.09
2022-09-28T15:45:18.710Z,78.10
2022-09-28T15:48:24.951Z,78.80
2022-09-28T15:51:21.722Z,79.56
2022-09-28T15:54:04.617Z,80.06
2022-09-28T15:57:11.716Z,80.64
2022-09-28T15:59:59.267Z,81.19
2022-09-28T16:02:52.726Z,81.29
2022-09-28T16:05:57.673Z,81.88
2022-09-28T16:08:44.705Z,82.25
2022-09-28T16:11:44.689Z,82.58
2022-09-28T16:14:27.798Z,82.18
2022-09-28T16:17:24.703Z,83.00
2022-09-28T16:20:07.763Z,83.33
2022-09-28T16:22:55.688Z,83.07
2022-09-28T16:25:43.691Z,83.70
2022-09-28T16:28:29.536Z,84.74
2022-09-28T16:31:26.689Z,84.91
2022-09-28T16:34:13.613Z,85.29
2022-09-28T16:37:02.657Z,85.88
2022-09-28T16:39:43.027Z,86.26
2022-09-28T16:42:29.658Z,86.08
2022-09-28T16:45:18.458Z,86.30
2022-09-28T16:48:08.669Z,86.60
2022-09-28T16:50:49.040Z,86.18
2022-09-28T16:53:53.650Z,86.51
2022-09-28T16:56:36.359Z,86.36
2022-09-28T16:59:23.614Z,86.17
2022-09-28T17:02:47.304Z,86.16
2022-09-28T17:05:27.713Z,86.02
2022-09-28T17:08:19.598Z,86.02
2022-09-28T17:11:18.151Z,85.94
2022-09-28T17:14:03.095Z,86.21
2022-09-28T17:17:07.367Z,86.42
2022-09-28T17:19:56.613Z,86.39
2022-09-28T17:22:43.633Z,86.37
2022-09-28T17:25:39.575Z,86.62
2022-09-28T17:28:38.615Z,86.28
2022-09-28T17:31:22.887Z,86.73
2022-09-28T17:34:09.622Z,86.56
2022-09-28T17:36:57.619Z,86.65
2022-09-28T17:39:37.977Z,85.98
2022-09-28T17:42:17.589Z,85.83
2022-09-28T17:45:04.597Z,85.33
2022-09-28T17:47:45.055Z,85.55
2022-09-28T17:50:33.607Z,85.39
2022-09-28T17:53:14.555Z,85.22
2022-09-28T17:56:01.578Z,85.63
2022-09-28T17:58:41.985Z,86.43
2022-09-28T18:01:28.617Z,86.36
2022-09-28T18:04:46.940Z,86.67
2022-09-28T18:07:18.658Z,86.74
2022-09-28T18:10:05.586Z,85.93
2022-09-28T18:12:45.721Z,86.96
2022-09-28T18:15:32.610Z,87.50
2022-09-28T18:18:19.552Z,87.59
2022-09-28T18:21:01.024Z,88.01
2022-09-28T18:23:51.556Z,87.66
2022-09-28T18:26:38.524Z,87.21
2022-09-28T18:29:18.666Z,87.00
2022-09-28T18:32:05.572Z,87.02
2022-09-28T18:34:45.805Z,86.90
2022-09-28T18:37:32.517Z,87.47
2022-09-28T18:40:14.718Z,87.26
2022-09-28T18:43:01.513Z,88.19
2022-09-28T18:45:42.620Z,88.31
2022-09-28T18:48:31.505Z,88.23
2022-09-28T18:51:15.662Z,87.86
2022-09-28T18:54:02.528Z,87.71
2022-09-28T18:56:49.553Z,87.97
2022-09-28T18:59:36.715Z,87.68
2022-09-28T19:02:19.632Z,87.32
2022-09-28T19:04:59.884Z,87.23
2022-09-28T19:07:47.509Z,86.14
2022-09-28T19:10:27.978Z,85.82
2022-09-28T19:13:14.495Z,88.36
2022-09-28T19:16:01.536Z,87.67
2022-09-28T19:18:43.814Z,87.01
2022-09-28T19:21:31.475Z,86.03
2022-09-28T19:24:18.517Z,85.27
2022-09-28T19:27:05.658Z,84.98
2022-09-28T19:30:08.495Z,84.81
2022-09-28T19:32:52.754Z,85.28
2022-09-28T19:37:08.096Z,85.84
2022-09-28T19:40:26.312Z,88.23
2022-09-28T19:43:27.475Z,88.28
2022-09-28T19:46:16.507Z,89.20
2022-09-28T19:49:03.469Z,89.52
2022-09-28T19:52:01.926Z,89.74
2022-09-28T19:54:51.463Z,89.19
2022-09-28T19:57:32.690Z,89.03
2022-09-28T20:00:20.452Z,88.33
2022-09-28T20:03:00.961Z,88.44
2022-09-28T20:05:48.455Z,88.18
2022-09-28T20:08:32.248Z,88.28
2022-09-28T20:11:19.470Z,89.93
2022-09-28T20:14:00.282Z,88.93
2022-09-28T20:16:49.534Z,88.23
2022-09-28T20:19:36.408Z,89.29
2022-09-28T20:22:25.502Z,90.16
2022-09-28T20:25:06.338Z,91.29
2022-09-28T20:27:53.405Z,94.09
2022-09-28T20:30:33.785Z,93.75
2022-09-28T20:33:28.700Z,96.75
2022-09-28T20:36:11.779Z,97.49
2022-09-28T20:39:01.389Z,94.12
2022-09-28T20:41:48.429Z,94.58
2022-09-28T20:44:28.527Z,93.96
2022-09-28T20:47:15.366Z,93.95
2022-09-28T20:50:02.408Z,93.55
2022-09-28T20:52:42.772Z,95.60
2022-09-28T20:55:29.375Z,93.25
2022-09-28T20:58:09.769Z,91.08
2022-09-28T21:00:56.337Z,91.62
2022-09-28T21:03:38.191Z,90.53
2022-09-28T21:06:25.356Z,89.42
2022-09-28T21:09:13.355Z,90.19
2022-09-28T21:11:53.473Z,90.26
2022-09-28T21:14:33.373Z,91.31
2022-09-28T21:17:13.774Z,94.57
2022-09-28T21:20:00.375Z,93.01
2022-09-28T21:22:40.734Z,94.01
2022-09-28T21:25:27.353Z,92.17
2022-09-28T21:28:21.374Z,93.71
2022-09-28T21:31:04.596Z,92.16
2022-09-28T21:33:51.357Z,90.34
2022-09-28T21:36:38.362Z,91.88
2022-09-28T21:39:25.349Z,92.76
2022-09-28T21:42:05.898Z,93.47
2022-09-28T21:44:55.291Z,93.34
2022-09-28T21:47:37.811Z,93.03
2022-09-28T21:50:24.312Z,92.57
2022-09-28T21:53:04.677Z,91.02
2022-09-28T21:55:52.331Z,91.43
2022-09-28T21:58:35.418Z,92.26
2022-09-28T22:01:49.377Z,94.99
2022-09-28T22:04:29.683Z,96.77
2022-09-28T22:07:16.319Z,97.07
2022-09-28T22:10:03.305Z,97.59
2022-09-28T22:12:43.490Z,98.12
2022-09-28T22:15:30.311Z,100.00
2022-09-28T22:18:17.319Z,99.58
2022-09-28T22:21:02.901Z,98.63
2022-09-28T22:23:50.300Z,97.28
2022-09-28T22:26:38.296Z,99.14
2022-09-28T22:29:18.375Z,100.00
2022-09-28T22:32:08.251Z,100.00
2022-09-28T22:34:48.386Z,99.55
2022-09-28T22:37:35.278Z,98.30
2022-09-28T22:40:16.638Z,98.29
2022-09-28T22:43:03.269Z,97.87
2022-09-28T22:45:50.302Z,97.14
2022-09-28T22:48:37.275Z,96.74
2022-09-28T22:51:17.379Z,96.54
2022-09-28T22:54:04.296Z,96.66
2022-09-28T22:56:44.349Z,96.56
2022-09-28T22:59:31.282Z,97.13
2022-09-28T23:02:11.356Z,97.33
2022-09-28T23:05:05.280Z,98.09
2022-09-28T23:07:53.504Z,98.96
2022-09-28T23:10:40.231Z,99.73
2022-09-28T23:13:21.324Z,100.00
2022-09-28T23:16:11.240Z,100.00
2022-09-28T23:18:58.251Z,100.00
2022-09-28T23:21:38.576Z,100.00
2022-09-28T23:24:25.272Z,99.22
2022-09-28T23:27:19.204Z,98.23
2022-09-28T23:30:06.180Z,98.37
2022-09-28T23:32:46.578Z,97.88
2022-09-28T23:35:33.172Z,97.87
2022-09-28T23:38:18.004Z,97.87
2022-09-28T23:41:05.212Z,97.91
2022-09-28T23:43:45.276Z,98.27
2022-09-28T23:46:32.261Z,98.80
2022-09-28T23:49:12.555Z,99.06
2022-09-28T23:51:59.198Z,98.92
2022-09-28T23:54:39.813Z,99.28
2022-09-28T23:57:26.216Z,100.00
